createdAt,value
2019-03-01T00:01:51.563Z,1.80
2019-03-01T00:04:41.855Z,1.67
2019-03-01T00:07:56.645Z,1.90
2019-03-01T00:11:06.576Z,1.93
2019-03-01T00:14:33.606Z,1.77
2019-03-01T00:17:58.055Z,1.57
2019-03-01T00:20:53.453Z,1.67
2019-03-01T00:23:53.155Z,1.83
2019-03-01T00:26:51.797Z,2.50
2019-03-01T00:29:40.379Z,1.77
2019-03-01T00:32:19.752Z,1.93
2019-03-01T00:35:23.940Z,1.70
2019-03-01T00:38:34.430Z,1.90
2019-03-01T00:41:49.799Z,2.00
2019-03-01T00:44:42.025Z,2.30
2019-03-01T00:47:11.183Z,2.17
2019-03-01T00:49:40.035Z,2.27
2019-03-01T00:52:09.391Z,1.63
2019-03-01T00:54:38.438Z,2.10
2019-03-01T00:57:08.100Z,2.37
2019-03-01T00:59:37.129Z,2.03
2019-03-01T01:02:06.074Z,1.90
2019-03-01T01:04:35.250Z,2.27
2019-03-01T01:07:04.646Z,2.20
2019-03-01T01:09:33.752Z,2.27
2019-03-01T01:12:02.543Z,2.87
2019-03-01T01:14:31.322Z,2.30
2019-03-01T01:17:00.442Z,2.23
2019-03-01T01:19:29.719Z,1.97
2019-03-01T01:21:58.910Z,1.90
2019-03-01T01:24:27.694Z,1.93
2019-03-01T01:26:56.737Z,2.50
2019-03-01T01:29:25.771Z,2.17
2019-03-01T01:31:55.058Z,1.23
2019-03-01T01:34:24.314Z,2.00
2019-03-01T01:36:53.435Z,2.23
2019-03-01T01:39:23.205Z,1.83
2019-03-01T01:41:52.541Z,1.70
2019-03-01T01:44:21.399Z,1.80
2019-03-01T01:46:50.696Z,2.43
2019-03-01T01:49:19.724Z,2.00
2019-03-01T01:51:48.593Z,2.20
2019-03-01T01:54:17.695Z,1.70
2019-03-01T01:56:46.731Z,1.67
2019-03-01T01:59:15.516Z,1.87
2019-03-01T02:01:44.795Z,2.10
2019-03-01T02:04:14.079Z,1.80
2019-03-01T02:06:43.175Z,2.00
2019-03-01T02:09:25.802Z,1.97
2019-03-01T02:11:55.055Z,1.90
2019-03-01T02:14:24.222Z,2.23
2019-03-01T02:16:53.141Z,1.93
2019-03-01T02:19:22.006Z,2.23
2019-03-01T02:21:51.274Z,1.60
2019-03-01T02:24:20.433Z,1.90
2019-03-01T02:26:49.530Z,2.50
2019-03-01T02:29:18.327Z,2.50
2019-03-01T02:31:55.776Z,1.80
2019-03-01T02:34:24.819Z,2.40
2019-03-01T02:36:53.603Z,2.23
2019-03-01T02:39:22.732Z,2.50
2019-03-01T02:41:51.753Z,2.17
2019-03-01T02:44:20.784Z,2.77
2019-03-01T02:46:50.059Z,1.70
2019-03-01T02:49:19.342Z,2.27
2019-03-01T02:51:48.141Z,2.30
2019-03-01T02:54:17.184Z,2.33
2019-03-01T02:56:45.969Z,2.20
2019-03-01T02:59:15.033Z,2.00
2019-03-01T03:01:43.827Z,2.30
2019-03-01T03:04:12.880Z,2.50
2019-03-01T03:06:55.946Z,2.20
2019-03-01T03:09:24.976Z,3.03
2019-03-01T03:11:54.331Z,2.40
2019-03-01T03:14:23.365Z,2.13
2019-03-01T03:16:52.411Z,2.50
2019-03-01T03:19:21.204Z,1.93
2019-03-01T03:21:50.860Z,1.50
2019-03-01T03:24:19.678Z,2.13
2019-03-01T03:26:48.736Z,2.00
2019-03-01T03:29:17.584Z,1.80
2019-03-01T03:31:46.375Z,1.83
2019-03-01T03:34:15.415Z,1.90
2019-03-01T03:36:44.534Z,1.50
2019-03-01T03:39:13.331Z,1.40
2019-03-01T03:41:42.192Z,1.70
2019-03-01T03:44:11.561Z,1.53
2019-03-01T03:46:40.663Z,1.67
2019-03-01T03:49:10.020Z,1.47
2019-03-01T03:51:39.288Z,1.50
2019-03-01T03:54:08.327Z,1.47
2019-03-01T03:56:37.652Z,1.30
2019-03-01T03:59:06.791Z,1.43
2019-03-01T04:01:35.665Z,1.67
2019-03-01T04:04:04.875Z,1.10
2019-03-01T04:06:34.151Z,1.10
2019-03-01T04:09:04.743Z,0.97
2019-03-01T04:11:34.015Z,1.30
2019-03-01T04:14:02.892Z,0.93
2019-03-01T04:16:31.754Z,1.43
2019-03-01T04:19:00.876Z,1.30
2019-03-01T04:21:30.052Z,1.30
2019-03-01T04:23:59.361Z,0.90
2019-03-01T04:26:28.395Z,0.90
2019-03-01T04:28:57.702Z,0.70
2019-03-01T04:31:26.552Z,0.90
2019-03-01T04:33:55.827Z,1.07
2019-03-01T04:36:25.124Z,0.67
2019-03-01T04:38:54.159Z,0.70
2019-03-01T04:41:23.200Z,1.20
2019-03-01T04:43:51.981Z,0.80
2019-03-01T04:46:21.098Z,1.30
2019-03-01T04:48:50.127Z,0.87
2019-03-01T04:51:18.928Z,1.10
2019-03-01T04:53:47.942Z,1.13
2019-03-01T04:56:16.741Z,0.53
2019-03-01T04:58:45.767Z,0.90
2019-03-01T05:01:14.711Z,0.90
2019-03-01T05:03:43.506Z,1.40
2019-03-01T05:06:12.375Z,1.10
2019-03-01T05:08:41.398Z,1.27
2019-03-01T05:11:10.683Z,1.27
2019-03-01T05:13:39.468Z,0.73
2019-03-01T05:16:08.519Z,0.70
2019-03-01T05:18:37.795Z,0.57
2019-03-01T05:21:06.666Z,0.60
2019-03-01T05:23:35.472Z,0.63
2019-03-01T05:26:04.423Z,0.40
2019-03-01T05:28:33.219Z,0.50
2019-03-01T05:31:02.019Z,0.37
2019-03-01T05:33:31.060Z,0.20
2019-03-01T05:35:59.860Z,1.20
2019-03-01T05:38:28.662Z,0.40
2019-03-01T05:40:57.475Z,0.33
2019-03-01T05:43:27.073Z,0.57
2019-03-01T05:45:56.193Z,0.50
2019-03-01T05:48:25.022Z,0.57
2019-03-01T05:50:53.866Z,0.43
2019-03-01T05:53:22.910Z,0.30
2019-03-01T05:55:52.456Z,0.27
2019-03-01T05:58:54.343Z,0.40
2019-03-01T06:01:33.054Z,0.40
2019-03-01T06:04:15.230Z,0.40
2019-03-01T06:07:10.143Z,0.77
2019-03-01T06:09:51.451Z,0.33
2019-03-01T06:12:50.433Z,1.30
2019-03-01T06:16:00.142Z,0.97
2019-03-01T06:18:53.806Z,0.40
2019-03-01T06:22:08.162Z,0.70
2019-03-01T06:25:14.231Z,0.60
2019-03-01T06:28:34.743Z,0.40
2019-03-01T06:31:51.405Z,0.50
2019-03-01T06:34:58.463Z,0.50
2019-03-01T06:37:52.476Z,0.57
2019-03-01T06:41:10.971Z,0.40
2019-03-01T06:44:05.940Z,0.30
2019-03-01T06:47:10.695Z,0.43
2019-03-01T06:50:07.458Z,0.43
2019-03-01T06:52:36.497Z,0.50
2019-03-01T06:55:05.679Z,0.50
2019-03-01T06:57:34.566Z,0.40
2019-03-01T07:00:05.359Z,0.40
2019-03-01T07:02:40.206Z,0.30
2019-03-01T07:05:09.388Z,0.40
2019-03-01T07:07:38.428Z,0.40
2019-03-01T07:10:08.106Z,0.40
2019-03-01T07:12:37.442Z,0.40
2019-03-01T07:15:08.663Z,0.40
2019-03-01T07:17:37.654Z,0.50
2019-03-01T07:20:08.608Z,0.63
2019-03-01T07:22:37.855Z,0.90
2019-03-01T07:25:07.277Z,3.00
2019-03-01T07:27:36.451Z,2.10
2019-03-01T07:30:05.451Z,4.00
2019-03-01T07:32:34.524Z,13.87
2019-03-01T07:35:03.341Z,2.90
2019-03-01T07:37:32.456Z,3.60
2019-03-01T07:40:01.266Z,9.73
2019-03-01T07:42:30.590Z,10.73
2019-03-01T07:45:00.325Z,6.97
2019-03-01T07:47:29.801Z,3.80
2019-03-01T07:49:59.108Z,17.30
2019-03-01T07:52:28.178Z,3.20
2019-03-01T07:54:57.222Z,2.57
2019-03-01T07:57:26.520Z,3.90
2019-03-01T07:59:55.311Z,2.53
2019-03-01T08:02:24.199Z,2.10
2019-03-01T08:04:53.002Z,1.80
2019-03-01T08:07:23.645Z,4.90
2019-03-01T08:09:54.266Z,2.53
2019-03-01T08:12:23.574Z,3.30
2019-03-01T08:14:52.621Z,2.30
2019-03-01T08:17:22.294Z,2.13
2019-03-01T08:19:54.973Z,1.10
2019-03-01T08:22:24.848Z,1.10
2019-03-01T08:24:52.966Z,0.60
2019-03-01T08:27:21.998Z,0.60
2019-03-01T08:29:51.075Z,0.80
2019-03-01T08:32:20.435Z,0.43
2019-03-01T08:34:53.383Z,4.57
2019-03-01T08:37:20.492Z,1.40
2019-03-01T08:39:49.744Z,13.17
2019-03-01T08:42:21.061Z,24.10
2019-03-01T08:44:50.111Z,11.43
2019-03-01T08:47:23.476Z,1.80
2019-03-01T08:49:50.524Z,5.00
2019-03-01T08:52:19.327Z,2.77
2019-03-01T08:54:48.660Z,1.10
2019-03-01T08:57:17.698Z,0.90
2019-03-01T08:59:46.958Z,8.20
2019-03-01T09:02:16.365Z,1.50
2019-03-01T09:04:50.857Z,1.97
2019-03-01T09:07:16.491Z,3.07
2019-03-01T09:09:46.106Z,1.63
2019-03-01T09:12:14.900Z,3.57
2019-03-01T09:14:44.671Z,2.37
2019-03-01T09:17:14.048Z,2.70
2019-03-01T09:19:43.139Z,11.20
2019-03-01T09:22:12.424Z,2.47
2019-03-01T09:24:41.490Z,2.43
2019-03-01T09:27:10.531Z,6.83
2019-03-01T09:29:41.880Z,3.87
2019-03-01T09:32:10.408Z,10.63
2019-03-01T09:34:39.781Z,7.53
2019-03-01T09:37:09.335Z,6.70
2019-03-01T09:39:38.404Z,5.20
2019-03-01T09:42:07.547Z,1.37
2019-03-01T09:44:38.433Z,6.93
2019-03-01T09:47:07.519Z,1.60
2019-03-01T09:49:36.384Z,1.67
2019-03-01T09:52:05.507Z,12.57
2019-03-01T09:54:34.316Z,2.10
2019-03-01T09:57:03.112Z,2.60
2019-03-01T09:59:31.931Z,1.70
2019-03-01T10:02:00.721Z,4.13
2019-03-01T10:04:29.776Z,3.47
2019-03-01T10:06:58.569Z,3.20
2019-03-01T10:09:27.388Z,7.23
2019-03-01T10:11:56.423Z,6.93
2019-03-01T10:14:25.456Z,2.43
2019-03-01T10:16:55.643Z,3.17
2019-03-01T10:19:24.764Z,2.60
2019-03-01T10:21:53.967Z,1.70
2019-03-01T10:24:23.265Z,2.37
2019-03-01T10:26:52.187Z,1.17
2019-03-01T10:29:21.239Z,1.67
2019-03-01T10:31:50.139Z,2.00
2019-03-01T10:34:19.267Z,1.43
2019-03-01T10:36:48.971Z,5.70
2019-03-01T10:39:17.844Z,1.40
2019-03-01T10:41:48.700Z,1.10
2019-03-01T10:44:17.823Z,3.67
2019-03-01T10:46:47.094Z,2.67
2019-03-01T10:49:16.211Z,3.43
2019-03-01T10:51:45.014Z,3.17
2019-03-01T10:54:14.137Z,2.23
2019-03-01T10:56:43.193Z,4.07
2019-03-01T10:59:12.257Z,4.43
2019-03-01T11:01:41.135Z,2.37
2019-03-01T11:04:10.215Z,1.20
2019-03-01T11:06:39.343Z,1.37
2019-03-01T11:09:08.485Z,1.40
2019-03-01T11:11:37.903Z,0.90
2019-03-01T11:14:07.138Z,1.00
2019-03-01T11:16:35.960Z,1.07
2019-03-01T11:19:05.137Z,1.00
2019-03-01T11:21:34.726Z,0.67
2019-03-01T11:24:03.675Z,0.80
2019-03-01T11:26:32.610Z,0.77
2019-03-01T11:29:01.393Z,0.70
2019-03-01T11:31:30.452Z,0.50
2019-03-01T11:33:59.310Z,0.93
2019-03-01T11:36:28.198Z,0.73
2019-03-01T11:38:56.991Z,0.87
2019-03-01T11:41:25.806Z,0.80
2019-03-01T11:43:54.694Z,1.10
2019-03-01T11:46:23.563Z,1.10
2019-03-01T11:48:52.347Z,0.70
2019-03-01T11:51:21.399Z,0.50
2019-03-01T11:53:50.672Z,0.80
2019-03-01T11:56:19.550Z,0.60
2019-03-01T11:58:48.341Z,0.40
2019-03-01T12:01:17.652Z,0.80
2019-03-01T12:03:46.693Z,0.50
2019-03-01T12:06:15.583Z,0.37
2019-03-01T12:08:44.615Z,1.67
2019-03-01T12:11:14.380Z,1.80
2019-03-01T12:13:43.394Z,1.73
2019-03-01T12:16:12.315Z,1.90
2019-03-01T12:18:41.375Z,1.03
2019-03-01T12:21:10.192Z,0.80
2019-03-01T12:23:39.217Z,0.70
2019-03-01T12:26:08.009Z,7.47
2019-03-01T12:28:37.110Z,42.20
2019-03-01T12:31:05.990Z,110.27
2019-03-01T12:33:34.787Z,71.97
2019-03-01T12:36:03.835Z,61.90
2019-03-01T12:38:32.658Z,16.73
2019-03-01T12:41:01.709Z,11.27
2019-03-01T12:43:30.759Z,20.37
2019-03-01T12:45:59.567Z,7.20
2019-03-01T12:48:28.687Z,20.17
2019-03-01T12:50:57.714Z,7.93
2019-03-01T12:53:26.514Z,21.33
2019-03-01T12:55:55.639Z,5.20
2019-03-01T12:58:24.431Z,5.43
2019-03-01T13:00:53.549Z,1.57
2019-03-01T13:03:22.599Z,1.10
2019-03-01T13:05:51.895Z,4.80
2019-03-01T13:08:20.693Z,1.30
2019-03-01T13:10:49.726Z,1.00
2019-03-01T13:13:18.543Z,1.10
2019-03-01T13:15:48.958Z,1.00
2019-03-01T13:18:18.439Z,0.80
2019-03-01T13:20:47.563Z,1.63
2019-03-01T13:23:16.432Z,2.03
2019-03-01T13:25:45.548Z,2.27
2019-03-01T13:28:14.452Z,0.40
2019-03-01T13:30:43.254Z,1.37
2019-03-01T13:33:12.446Z,1.70
2019-03-01T13:35:41.389Z,1.00
2019-03-01T13:38:10.448Z,1.27
2019-03-01T13:40:39.491Z,0.90
2019-03-01T13:43:08.366Z,3.07
2019-03-01T13:45:37.651Z,2.23
2019-03-01T13:48:07.031Z,1.60
2019-03-01T13:50:38.260Z,1.87
2019-03-01T13:53:06.738Z,1.20
2019-03-01T13:55:35.527Z,1.47
2019-03-01T13:58:04.642Z,1.60
2019-03-01T14:00:33.656Z,1.20
2019-03-01T14:03:02.538Z,0.70
2019-03-01T14:05:31.414Z,1.50
2019-03-01T14:08:08.553Z,1.53
2019-03-01T14:10:30.805Z,1.03
2019-03-01T14:12:59.940Z,1.20
2019-03-01T14:15:29.965Z,0.90
2019-03-01T14:18:01.183Z,0.80
2019-03-01T14:20:30.558Z,1.30
2019-03-01T14:22:59.378Z,1.00
2019-03-01T14:25:28.183Z,0.73
2019-03-01T14:27:56.976Z,0.87
2019-03-01T14:30:30.227Z,0.37
2019-03-01T14:32:58.412Z,0.70
2019-03-01T14:35:27.566Z,1.30
2019-03-01T14:37:56.839Z,1.10
2019-03-01T14:40:25.642Z,0.50
2019-03-01T14:42:54.795Z,0.90
2019-03-01T14:45:25.569Z,0.93
2019-03-01T14:47:54.855Z,3.67
2019-03-01T14:50:24.214Z,0.50
2019-03-01T14:52:58.308Z,1.30
2019-03-01T14:55:29.994Z,0.70
2019-03-01T14:58:02.983Z,0.90
2019-03-01T15:00:41.990Z,1.30
2019-03-01T15:03:32.403Z,0.90
2019-03-01T15:06:01.360Z,0.97
2019-03-01T15:08:30.797Z,0.70
2019-03-01T15:11:04.477Z,1.37
2019-03-01T15:13:34.905Z,2.63
2019-03-01T15:16:04.735Z,3.30
2019-03-01T15:18:34.270Z,3.20
2019-03-01T15:21:03.226Z,2.53
2019-03-01T15:23:32.045Z,1.57
2019-03-01T15:26:00.923Z,6.50
2019-03-01T15:28:29.728Z,2.17
2019-03-01T15:30:58.530Z,2.20
2019-03-01T15:33:27.583Z,5.67
2019-03-01T15:35:56.448Z,2.47
2019-03-01T15:38:27.742Z,2.40
2019-03-01T15:40:56.927Z,2.17
2019-03-01T15:43:26.528Z,1.70
2019-03-01T15:45:56.358Z,3.00
2019-03-01T15:48:25.720Z,2.70
2019-03-01T15:50:54.542Z,2.30
2019-03-01T15:53:25.116Z,2.77
2019-03-01T15:55:54.162Z,2.90
2019-03-01T15:58:23.450Z,3.53
2019-03-01T16:00:52.570Z,3.33
2019-03-01T16:03:21.860Z,6.10
2019-03-01T16:05:50.931Z,4.23
2019-03-01T16:08:20.035Z,4.67
2019-03-01T16:10:48.854Z,6.40
2019-03-01T16:13:17.886Z,5.27
2019-03-01T16:15:47.026Z,7.47
2019-03-01T16:18:15.913Z,5.93
2019-03-01T16:20:44.799Z,6.27
2019-03-01T16:23:13.869Z,6.47
2019-03-01T16:25:42.998Z,6.47
2019-03-01T16:28:12.049Z,6.40
2019-03-01T16:30:40.860Z,6.73
2019-03-01T16:33:09.972Z,5.73
2019-03-01T16:35:39.019Z,6.50
2019-03-01T16:38:07.814Z,6.23
2019-03-01T16:40:36.634Z,6.00
2019-03-01T16:43:05.814Z,6.50
2019-03-01T16:45:36.202Z,7.77
2019-03-01T16:48:05.478Z,7.57
2019-03-01T16:50:34.675Z,7.97
2019-03-01T16:53:04.777Z,8.40
2019-03-01T16:55:34.627Z,8.93
2019-03-01T16:58:07.271Z,8.27
2019-03-01T17:00:33.946Z,10.30
2019-03-01T17:03:02.912Z,7.50
2019-03-01T17:05:32.075Z,8.63
2019-03-01T17:08:05.630Z,8.13
2019-03-01T17:10:32.612Z,8.17
2019-03-01T17:13:01.435Z,9.67
2019-03-01T17:15:30.561Z,9.40
2019-03-01T17:18:00.029Z,8.33
2019-03-01T17:20:29.599Z,11.47
2019-03-01T17:22:59.673Z,9.50
2019-03-01T17:25:29.045Z,8.87
2019-03-01T17:27:58.412Z,8.93
2019-03-01T17:30:27.378Z,9.27
2019-03-01T17:32:56.194Z,8.77
2019-03-01T17:35:25.060Z,8.47
2019-03-01T17:37:54.102Z,8.50
2019-03-01T17:40:23.069Z,9.17
2019-03-01T17:42:53.224Z,8.17
2019-03-01T17:45:23.143Z,9.27
2019-03-01T17:47:52.104Z,8.50
2019-03-01T17:50:20.889Z,8.40
2019-03-01T17:52:49.940Z,8.00
2019-03-01T17:55:19.079Z,9.50
2019-03-01T17:57:50.197Z,8.20
2019-03-01T18:00:25.420Z,7.47
2019-03-01T18:02:53.895Z,7.93
2019-03-01T18:05:23.247Z,7.10
2019-03-01T18:07:52.445Z,9.57
2019-03-01T18:10:21.319Z,8.90
2019-03-01T18:12:53.052Z,10.67
2019-03-01T18:15:23.338Z,9.47
2019-03-01T18:17:52.463Z,8.67
2019-03-01T18:20:21.578Z,8.30
2019-03-01T18:22:50.704Z,6.93
2019-03-01T18:25:22.747Z,6.43
2019-03-01T18:27:53.020Z,6.43
2019-03-01T18:30:22.002Z,6.83
2019-03-01T18:32:51.063Z,7.77
2019-03-01T18:35:20.245Z,7.23
2019-03-01T18:37:51.411Z,7.43
2019-03-01T18:40:19.714Z,8.53
2019-03-01T18:42:48.518Z,10.47
2019-03-01T18:45:17.832Z,9.80
2019-03-01T18:47:46.954Z,7.90
2019-03-01T18:50:18.586Z,8.43
2019-03-01T18:52:49.594Z,7.77
2019-03-01T18:55:18.555Z,7.20
2019-03-01T18:57:47.724Z,7.40
2019-03-01T19:00:32.586Z,7.67
2019-03-01T19:03:04.471Z,8.90
2019-03-01T19:05:32.602Z,7.67
2019-03-01T19:08:04.860Z,8.10
2019-03-01T19:10:32.701Z,8.87
2019-03-01T19:13:01.523Z,9.93
2019-03-01T19:15:30.631Z,9.93
2019-03-01T19:17:59.830Z,9.87
2019-03-01T19:20:28.937Z,11.13
2019-03-01T19:22:57.987Z,9.43
2019-03-01T19:25:26.917Z,10.60
2019-03-01T19:27:56.033Z,10.13
2019-03-01T19:30:25.222Z,10.40
2019-03-01T19:32:54.342Z,11.17
2019-03-01T19:35:28.265Z,11.27
2019-03-01T19:37:53.918Z,11.17
2019-03-01T19:40:23.401Z,12.30
2019-03-01T19:42:52.317Z,11.57
2019-03-01T19:45:21.201Z,12.47
2019-03-01T19:47:49.996Z,12.77
2019-03-01T19:50:21.825Z,13.07
2019-03-01T19:52:50.702Z,12.93
2019-03-01T19:55:20.109Z,13.17
2019-03-01T19:57:49.503Z,14.57
2019-03-01T20:00:22.754Z,15.40
2019-03-01T20:02:51.718Z,15.43
2019-03-01T20:05:22.403Z,17.03
2019-03-01T20:07:51.764Z,17.47
2019-03-01T20:10:22.115Z,16.60
2019-03-01T20:12:51.264Z,16.73
2019-03-01T20:15:21.671Z,18.97
2019-03-01T20:17:51.087Z,18.20
2019-03-01T20:20:22.111Z,17.50
2019-03-01T20:22:54.269Z,17.10
2019-03-01T20:25:22.659Z,18.63
2019-03-01T20:27:51.958Z,19.20
2019-03-01T20:30:28.451Z,17.63
2019-03-01T20:32:53.636Z,18.70
2019-03-01T20:35:23.087Z,19.07
2019-03-01T20:37:51.949Z,17.93
2019-03-01T20:40:22.841Z,17.90
2019-03-01T20:42:52.020Z,18.57
2019-03-01T20:45:25.914Z,16.97
2019-03-01T20:47:54.559Z,18.60
2019-03-01T20:50:23.982Z,18.93
2019-03-01T20:52:52.779Z,19.00
2019-03-01T20:55:23.847Z,19.23
2019-03-01T20:57:52.842Z,20.33
2019-03-01T21:00:22.700Z,20.77
2019-03-01T21:02:52.707Z,18.50
2019-03-01T21:05:24.884Z,21.37
2019-03-01T21:07:53.823Z,20.80
2019-03-01T21:10:23.128Z,20.43
2019-03-01T21:12:52.239Z,20.40
2019-03-01T21:15:21.497Z,22.20
2019-03-01T21:17:52.947Z,22.00
2019-03-01T21:20:21.797Z,21.23
2019-03-01T21:22:51.078Z,21.37
2019-03-01T21:25:20.222Z,21.10
2019-03-01T21:27:49.091Z,20.83
2019-03-01T21:30:23.989Z,23.47
2019-03-01T21:32:54.225Z,21.57
2019-03-01T21:35:23.624Z,22.90
2019-03-01T21:37:52.594Z,22.37
2019-03-01T21:40:21.542Z,22.93
2019-03-01T21:42:52.764Z,23.77
2019-03-01T21:45:22.418Z,22.93
2019-03-01T21:47:51.371Z,23.03
2019-03-01T21:50:20.502Z,22.23
2019-03-01T21:52:49.539Z,20.67
2019-03-01T21:55:18.457Z,20.33
2019-03-01T21:57:47.570Z,18.00
2019-03-01T22:00:18.578Z,17.03
2019-03-01T22:02:48.958Z,16.63
2019-03-01T22:05:19.406Z,16.13
2019-03-01T22:07:48.367Z,16.63
2019-03-01T22:10:17.223Z,17.33
2019-03-01T22:12:46.095Z,16.37
2019-03-01T22:15:17.194Z,14.37
2019-03-01T22:17:48.689Z,16.83
2019-03-01T22:20:18.045Z,16.47
2019-03-01T22:22:47.121Z,14.93
2019-03-01T22:25:15.927Z,14.63
2019-03-01T22:27:45.031Z,13.63
2019-03-01T22:30:19.570Z,13.07
2019-03-01T22:32:47.061Z,11.20
2019-03-01T22:35:15.854Z,11.23
2019-03-01T22:37:46.774Z,10.87
2019-03-01T22:40:15.478Z,11.83
2019-03-01T22:42:45.813Z,11.70
2019-03-01T22:45:15.371Z,11.77
2019-03-01T22:47:44.968Z,11.70
2019-03-01T22:50:14.918Z,12.87
2019-03-01T22:52:43.895Z,12.20
2019-03-01T22:55:14.216Z,12.50
2019-03-01T22:57:44.888Z,15.27
2019-03-01T23:01:04.098Z,12.33
2019-03-01T23:03:33.407Z,13.20
2019-03-01T23:06:02.251Z,13.73
2019-03-01T23:08:31.755Z,13.93
2019-03-01T23:11:02.234Z,14.23
2019-03-01T23:13:31.035Z,14.23
2019-03-01T23:15:59.903Z,15.17
2019-03-01T23:18:28.716Z,15.07
2019-03-01T23:21:00.940Z,15.77
2019-03-01T23:23:28.519Z,14.80
2019-03-01T23:25:57.576Z,14.67
2019-03-01T23:28:26.367Z,16.50
2019-03-01T23:30:55.411Z,16.87
2019-03-01T23:33:24.220Z,16.33
2019-03-01T23:35:53.906Z,16.33
2019-03-01T23:38:22.770Z,16.30
2019-03-01T23:40:51.827Z,17.80
2019-03-01T23:43:21.200Z,17.70
2019-03-01T23:45:53.747Z,17.00
2019-03-01T23:48:20.777Z,17.07
2019-03-01T23:50:49.832Z,18.83
2019-03-01T23:53:19.104Z,18.43
2019-03-01T23:55:51.019Z,17.97
2019-03-01T23:58:18.985Z,19.20
